Paro, Bhutan
Current Conditions -  °F | °C
As of 12:50 PM on Monday 24 Nov 2014 (Local Time) from VQPR Reporting Station
Clear Clear  
Wind Chill: 18°   Ceiling: Unl
Heat Index: 18°   Visibility: 6mi
Dew Point: -2°   Wind: 2mph
Humidity: 26%   Direction: 190°S
Pressure: 30.09"   Gusts: NA
Location:  27.51°N, 89.36°E
Report Text: VQPR 240650Z 19002KT 9999 NSC 18/M02 Q1019 NOSIG
Loading
Personal Weather Stations






























Interactive Weather Map New forecast layout! Learn more

10-Day Weather Forecast

Advertisements
Track Severe Weather on mobile